sensor_id;sensor_type;location;lat;lon;timestamp;P1;durP1;ratioP1;P2;durP2;ratioP2
8704;SDS011;4389;41.932;25.904;2023-02-11T00:02:19;57.43;;;34.13;;
8704;SDS011;4389;41.932;25.904;2023-02-11T00:04:47;42.20;;;23.23;;
8704;SDS011;4389;41.932;25.904;2023-02-11T00:07:14;27.97;;;16.30;;
8704;SDS011;4389;41.932;25.904;2023-02-11T00:09:42;29.30;;;17.30;;
8704;SDS011;4389;41.932;25.904;2023-02-11T00:12:09;22.70;;;13.27;;
8704;SDS011;4389;41.932;25.904;2023-02-11T00:14:36;22.87;;;12.87;;
8704;SDS011;4389;41.932;25.904;2023-02-11T00:17:03;34.87;;;14.17;;
8704;SDS011;4389;41.932;25.904;2023-02-11T00:19:30;23.43;;;14.30;;
8704;SDS011;4389;41.932;25.904;2023-02-11T00:21:57;22.17;;;12.73;;
8704;SDS011;4389;41.932;25.904;2023-02-11T00:24:24;21.10;;;12.53;;
8704;SDS011;4389;41.932;25.904;2023-02-11T00:26:52;21.37;;;13.53;;
8704;SDS011;4389;41.932;25.904;2023-02-11T00:29:19;22.20;;;12.73;;
8704;SDS011;4389;41.932;25.904;2023-02-11T00:31:46;17.67;;;11.83;;
8704;SDS011;4389;41.932;25.904;2023-02-11T00:34:13;19.07;;;12.17;;
8704;SDS011;4389;41.932;25.904;2023-02-11T00:36:40;16.97;;;11.77;;
8704;SDS011;4389;41.932;25.904;2023-02-11T00:39:06;18.13;;;11.37;;
8704;SDS011;4389;41.932;25.904;2023-02-11T00:41:33;18.60;;;11.90;;
8704;SDS011;4389;41.932;25.904;2023-02-11T00:44:02;21.70;;;11.77;;
8704;SDS011;4389;41.932;25.904;2023-02-11T00:46:29;19.57;;;11.97;;
8704;SDS011;4389;41.932;25.904;2023-02-11T00:48:55;19.43;;;12.13;;
8704;SDS011;4389;41.932;25.904;2023-02-11T00:51:22;22.67;;;12.03;;
8704;SDS011;4389;41.932;25.904;2023-02-11T00:53:50;17.37;;;11.30;;
8704;SDS011;4389;41.932;25.904;2023-02-11T00:56:17;19.07;;;11.67;;
8704;SDS011;4389;41.932;25.904;2023-02-11T00:58:44;18.87;;;11.77;;
8704;SDS011;4389;41.932;25.904;2023-02-11T01:01:12;23.10;;;11.40;;
8704;SDS011;4389;41.932;25.904;2023-02-11T01:03:39;22.60;;;12.90;;
8704;SDS011;4389;41.932;25.904;2023-02-11T01:06:06;22.40;;;12.07;;
8704;SDS011;4389;41.932;25.904;2023-02-11T01:08:34;19.80;;;12.47;;
8704;SDS011;4389;41.932;25.904;2023-02-11T01:11:03;21.80;;;12.90;;
8704;SDS011;4389;41.932;25.904;2023-02-11T01:13:32;20.40;;;14.00;;
8704;SDS011;4389;41.932;25.904;2023-02-11T01:16:01;17.80;;;12.67;;
8704;SDS011;4389;41.932;25.904;2023-02-11T01:18:30;20.43;;;12.63;;
8704;SDS011;4389;41.932;25.904;2023-02-11T01:20:57;18.30;;;11.57;;
8704;SDS011;4389;41.932;25.904;2023-02-11T01:23:24;18.90;;;12.17;;
8704;SDS011;4389;41.932;25.904;2023-02-11T01:25:51;19.13;;;12.43;;
8704;SDS011;4389;41.932;25.904;2023-02-11T01:28:19;18.00;;;11.43;;
8704;SDS011;4389;41.932;25.904;2023-02-11T01:30:47;18.10;;;11.67;;
8704;SDS011;4389;41.932;25.904;2023-02-11T01:33:14;30.87;;;12.90;;
8704;SDS011;4389;41.932;25.904;2023-02-11T01:35:42;37.30;;;13.90;;
8704;SDS011;4389;41.932;25.904;2023-02-11T01:38:13;27.60;;;12.70;;
8704;SDS011;4389;41.932;25.904;2023-02-11T01:40:45;26.03;;;12.73;;
8704;SDS011;4389;41.932;25.904;2023-02-11T01:43:13;20.07;;;12.73;;
8704;SDS011;4389;41.932;25.904;2023-02-11T01:48:27;20.43;;;11.60;;
8704;SDS011;4389;41.932;25.904;2023-02-11T01:50:58;22.50;;;14.17;;
8704;SDS011;4389;41.932;25.904;2023-02-11T01:53:28;25.30;;;13.17;;
8704;SDS011;4389;41.932;25.904;2023-02-11T01:56:14;22.27;;;13.57;;
8704;SDS011;4389;41.932;25.904;2023-02-11T01:59:02;21.87;;;13.33;;
8704;SDS011;4389;41.932;25.904;2023-02-11T02:01:33;23.83;;;13.93;;
8704;SDS011;4389;41.932;25.904;2023-02-11T02:04:01;27.53;;;14.03;;
8704;SDS011;4389;41.932;25.904;2023-02-11T02:06:32;19.30;;;14.13;;
8704;SDS011;4389;41.932;25.904;2023-02-11T02:09:01;28.10;;;14.67;;
8704;SDS011;4389;41.932;25.904;2023-02-11T02:11:30;24.10;;;14.30;;
8704;SDS011;4389;41.932;25.904;2023-02-11T02:13:58;22.77;;;14.17;;
8704;SDS011;4389;41.932;25.904;2023-02-11T02:16:25;22.43;;;13.70;;
8704;SDS011;4389;41.932;25.904;2023-02-11T02:19:00;30.17;;;14.13;;
8704;SDS011;4389;41.932;25.904;2023-02-11T02:22:00;27.20;;;14.07;;
8704;SDS011;4389;41.932;25.904;2023-02-11T02:24:50;19.57;;;13.50;;
8704;SDS011;4389;41.932;25.904;2023-02-11T02:27:33;21.33;;;12.77;;
8704;SDS011;4389;41.932;25.904;2023-02-11T02:33:13;21.73;;;14.57;;
8704;SDS011;4389;41.932;25.904;2023-02-11T02:35:52;23.53;;;13.80;;
8704;SDS011;4389;41.932;25.904;2023-02-11T02:38:28;27.57;;;14.73;;
8704;SDS011;4389;41.932;25.904;2023-02-11T02:41:00;33.87;;;14.40;;
8704;SDS011;4389;41.932;25.904;2023-02-11T02:43:29;20.00;;;12.33;;
8704;SDS011;4389;41.932;25.904;2023-02-11T02:46:08;27.07;;;14.60;;
8704;SDS011;4389;41.932;25.904;2023-02-11T02:48:37;22.03;;;13.50;;
8704;SDS011;4389;41.932;25.904;2023-02-11T02:51:07;33.13;;;14.00;;
8704;SDS011;4389;41.932;25.904;2023-02-11T02:53:42;27.57;;;13.60;;
8704;SDS011;4389;41.932;25.904;2023-02-11T02:56:15;24.07;;;13.93;;
8704;SDS011;4389;41.932;25.904;2023-02-11T02:58:57;25.03;;;14.70;;
8704;SDS011;4389;41.932;25.904;2023-02-11T03:01:39;28.47;;;15.20;;
8704;SDS011;4389;41.932;25.904;2023-02-11T03:04:16;26.63;;;15.67;;
8704;SDS011;4389;41.932;25.904;2023-02-11T03:06:51;32.83;;;19.03;;
8704;SDS011;4389;41.932;25.904;2023-02-11T03:09:25;24.37;;;15.30;;
8704;SDS011;4389;41.932;25.904;2023-02-11T03:11:57;22.73;;;13.73;;
8704;SDS011;4389;41.932;25.904;2023-02-11T03:14:26;27.63;;;14.17;;
8704;SDS011;4389;41.932;25.904;2023-02-11T03:16:54;25.07;;;14.70;;
8704;SDS011;4389;41.932;25.904;2023-02-11T03:19:27;27.57;;;15.03;;
8704;SDS011;4389;41.932;25.904;2023-02-11T03:21:58;21.27;;;13.60;;
8704;SDS011;4389;41.932;25.904;2023-02-11T03:24:29;32.13;;;14.57;;
8704;SDS011;4389;41.932;25.904;2023-02-11T03:27:00;24.50;;;14.63;;
8704;SDS011;4389;41.932;25.904;2023-02-11T03:29:33;22.97;;;14.00;;
8704;SDS011;4389;41.932;25.904;2023-02-11T03:32:05;26.53;;;14.07;;
8704;SDS011;4389;41.932;25.904;2023-02-11T03:34:43;26.37;;;14.30;;
8704;SDS011;4389;41.932;25.904;2023-02-11T03:37:15;24.63;;;14.70;;
8704;SDS011;4389;41.932;25.904;2023-02-11T03:39:45;28.33;;;16.33;;
8704;SDS011;4389;41.932;25.904;2023-02-11T03:42:17;26.50;;;14.53;;
8704;SDS011;4389;41.932;25.904;2023-02-11T03:44:48;21.90;;;14.57;;
8704;SDS011;4389;41.932;25.904;2023-02-11T03:47:20;23.87;;;14.60;;
8704;SDS011;4389;41.932;25.904;2023-02-11T03:49:52;21.57;;;13.80;;
8704;SDS011;4389;41.932;25.904;2023-02-11T03:52:22;24.33;;;14.30;;
8704;SDS011;4389;41.932;25.904;2023-02-11T03:54:52;19.40;;;12.80;;
8704;SDS011;4389;41.932;25.904;2023-02-11T03:57:22;22.90;;;14.20;;
8704;SDS011;4389;41.932;25.904;2023-02-11T03:59:50;28.43;;;14.23;;
8704;SDS011;4389;41.932;25.904;2023-02-11T04:02:21;26.10;;;15.23;;
8704;SDS011;4389;41.932;25.904;2023-02-11T04:04:53;22.87;;;15.00;;
8704;SDS011;4389;41.932;25.904;2023-02-11T04:07:20;24.43;;;14.80;;
8704;SDS011;4389;41.932;25.904;2023-02-11T04:09:47;25.97;;;14.93;;
8704;SDS011;4389;41.932;25.904;2023-02-11T04:12:13;30.53;;;16.90;;
8704;SDS011;4389;41.932;25.904;2023-02-11T04:14:40;21.53;;;14.47;;
8704;SDS011;4389;41.932;25.904;2023-02-11T04:17:07;28.67;;;14.50;;
8704;SDS011;4389;41.932;25.904;2023-02-11T04:19:34;25.87;;;15.53;;
8704;SDS011;4389;41.932;25.904;2023-02-11T04:22:03;20.80;;;14.30;;
8704;SDS011;4389;41.932;25.904;2023-02-11T04:24:31;25.47;;;15.87;;
8704;SDS011;4389;41.932;25.904;2023-02-11T04:26:57;23.87;;;14.90;;
8704;SDS011;4389;41.932;25.904;2023-02-11T04:29:25;26.37;;;15.60;;
8704;SDS011;4389;41.932;25.904;2023-02-11T04:31:53;30.40;;;17.07;;
8704;SDS011;4389;41.932;25.904;2023-02-11T04:34:20;35.20;;;20.63;;
8704;SDS011;4389;41.932;25.904;2023-02-11T04:36:48;31.33;;;23.50;;
8704;SDS011;4389;41.932;25.904;2023-02-11T04:39:16;35.57;;;16.47;;
8704;SDS011;4389;41.932;25.904;2023-02-11T04:41:44;22.17;;;14.67;;
8704;SDS011;4389;41.932;25.904;2023-02-11T04:44:10;24.90;;;15.20;;
8704;SDS011;4389;41.932;25.904;2023-02-11T04:46:37;28.33;;;16.57;;
8704;SDS011;4389;41.932;25.904;2023-02-11T04:49:04;28.23;;;16.00;;
8704;SDS011;4389;41.932;25.904;2023-02-11T04:51:31;25.03;;;16.13;;
8704;SDS011;4389;41.932;25.904;2023-02-11T04:53:58;27.10;;;15.87;;
8704;SDS011;4389;41.932;25.904;2023-02-11T04:56:26;32.03;;;19.00;;
8704;SDS011;4389;41.932;25.904;2023-02-11T04:58:53;40.77;;;25.50;;
8704;SDS011;4389;41.932;25.904;2023-02-11T05:01:20;27.33;;;21.57;;
8704;SDS011;4389;41.932;25.904;2023-02-11T05:03:46;31.90;;;17.73;;
8704;SDS011;4389;41.932;25.904;2023-02-11T05:06:13;24.43;;;16.00;;
8704;SDS011;4389;41.932;25.904;2023-02-11T05:08:40;27.60;;;16.53;;
8704;SDS011;4389;41.932;25.904;2023-02-11T05:11:07;31.30;;;17.60;;
8704;SDS011;4389;41.932;25.904;2023-02-11T05:13:41;39.97;;;18.03;;
8704;SDS011;4389;41.932;25.904;2023-02-11T05:16:08;33.83;;;16.73;;
8704;SDS011;4389;41.932;25.904;2023-02-11T05:18:36;26.53;;;16.17;;
8704;SDS011;4389;41.932;25.904;2023-02-11T05:21:04;35.00;;;15.77;;
8704;SDS011;4389;41.932;25.904;2023-02-11T05:23:32;30.60;;;17.80;;
8704;SDS011;4389;41.932;25.904;2023-02-11T05:25:59;25.53;;;14.87;;
8704;SDS011;4389;41.932;25.904;2023-02-11T05:28:27;25.67;;;16.43;;
8704;SDS011;4389;41.932;25.904;2023-02-11T05:30:55;24.60;;;15.77;;
8704;SDS011;4389;41.932;25.904;2023-02-11T05:33:22;32.30;;;16.20;;
8704;SDS011;4389;41.932;25.904;2023-02-11T05:35:49;34.80;;;18.30;;
8704;SDS011;4389;41.932;25.904;2023-02-11T05:38:16;29.77;;;18.20;;
8704;SDS011;4389;41.932;25.904;2023-02-11T05:40:43;29.70;;;16.20;;
8704;SDS011;4389;41.932;25.904;2023-02-11T05:43:10;33.20;;;16.83;;
8704;SDS011;4389;41.932;25.904;2023-02-11T05:45:37;38.67;;;20.50;;
8704;SDS011;4389;41.932;25.904;2023-02-11T05:48:05;56.50;;;30.43;;
8704;SDS011;4389;41.932;25.904;2023-02-11T05:50:32;45.50;;;24.07;;
8704;SDS011;4389;41.932;25.904;2023-02-11T05:52:59;47.97;;;22.47;;
8704;SDS011;4389;41.932;25.904;2023-02-11T05:55:26;32.53;;;20.53;;
8704;SDS011;4389;41.932;25.904;2023-02-11T05:57:52;34.73;;;22.10;;
8704;SDS011;4389;41.932;25.904;2023-02-11T06:00:19;45.40;;;24.43;;
8704;SDS011;4389;41.932;25.904;2023-02-11T06:02:46;45.07;;;22.43;;
8704;SDS011;4389;41.932;25.904;2023-02-11T06:05:14;58.60;;;32.57;;
8704;SDS011;4389;41.932;25.904;2023-02-11T06:07:41;66.77;;;33.20;;
8704;SDS011;4389;41.932;25.904;2023-02-11T06:10:08;72.17;;;42.23;;
8704;SDS011;4389;41.932;25.904;2023-02-11T06:12:36;51.53;;;30.87;;
8704;SDS011;4389;41.932;25.904;2023-02-11T06:15:03;63.77;;;32.40;;
8704;SDS011;4389;41.932;25.904;2023-02-11T06:17:31;71.43;;;38.07;;
8704;SDS011;4389;41.932;25.904;2023-02-11T06:20:00;57.40;;;35.90;;
8704;SDS011;4389;41.932;25.904;2023-02-11T06:22:29;69.83;;;40.00;;
8704;SDS011;4389;41.932;25.904;2023-02-11T06:24:56;81.10;;;46.17;;
8704;SDS011;4389;41.932;25.904;2023-02-11T06:27:23;74.67;;;40.83;;
8704;SDS011;4389;41.932;25.904;2023-02-11T06:29:50;29.87;;;19.47;;
8704;SDS011;4389;41.932;25.904;2023-02-11T06:32:17;28.40;;;18.17;;
8704;SDS011;4389;41.932;25.904;2023-02-11T06:34:44;33.60;;;19.63;;
8704;SDS011;4389;41.932;25.904;2023-02-11T06:37:11;29.30;;;19.40;;
8704;SDS011;4389;41.932;25.904;2023-02-11T06:39:40;34.23;;;20.03;;
8704;SDS011;4389;41.932;25.904;2023-02-11T06:42:07;31.27;;;19.40;;
8704;SDS011;4389;41.932;25.904;2023-02-11T06:44:35;30.57;;;19.30;;
8704;SDS011;4389;41.932;25.904;2023-02-11T06:47:01;30.53;;;18.53;;
8704;SDS011;4389;41.932;25.904;2023-02-11T06:49:28;30.63;;;17.90;;
8704;SDS011;4389;41.932;25.904;2023-02-11T06:51:55;37.23;;;20.73;;
8704;SDS011;4389;41.932;25.904;2023-02-11T06:54:22;44.77;;;23.57;;
8704;SDS011;4389;41.932;25.904;2023-02-11T06:56:50;38.40;;;25.23;;
8704;SDS011;4389;41.932;25.904;2023-02-11T06:59:18;52.83;;;30.87;;
8704;SDS011;4389;41.932;25.904;2023-02-11T07:01:45;86.80;;;47.30;;
8704;SDS011;4389;41.932;25.904;2023-02-11T07:04:13;117.83;;;68.50;;
8704;SDS011;4389;41.932;25.904;2023-02-11T07:06:40;120.13;;;70.23;;
8704;SDS011;4389;41.932;25.904;2023-02-11T07:09:07;112.03;;;64.60;;
8704;SDS011;4389;41.932;25.904;2023-02-11T07:11:34;121.37;;;72.07;;
8704;SDS011;4389;41.932;25.904;2023-02-11T07:14:03;126.43;;;72.10;;
8704;SDS011;4389;41.932;25.904;2023-02-11T07:16:33;42.33;;;26.13;;
8704;SDS011;4389;41.932;25.904;2023-02-11T07:19:00;28.37;;;16.43;;
8704;SDS011;4389;41.932;25.904;2023-02-11T07:21:27;27.47;;;17.27;;
8704;SDS011;4389;41.932;25.904;2023-02-11T07:23:54;28.00;;;17.00;;
8704;SDS011;4389;41.932;25.904;2023-02-11T07:26:21;30.70;;;17.20;;
8704;SDS011;4389;41.932;25.904;2023-02-11T07:28:50;32.90;;;17.80;;
8704;SDS011;4389;41.932;25.904;2023-02-11T07:31:19;23.50;;;15.50;;
8704;SDS011;4389;41.932;25.904;2023-02-11T07:33:47;30.40;;;18.93;;
8704;SDS011;4389;41.932;25.904;2023-02-11T07:36:16;31.00;;;18.10;;
8704;SDS011;4389;41.932;25.904;2023-02-11T07:38:43;31.73;;;17.63;;
8704;SDS011;4389;41.932;25.904;2023-02-11T07:41:12;29.43;;;16.60;;
8704;SDS011;4389;41.932;25.904;2023-02-11T07:43:40;32.07;;;18.33;;
8704;SDS011;4389;41.932;25.904;2023-02-11T07:46:09;22.93;;;17.07;;
8704;SDS011;4389;41.932;25.904;2023-02-11T07:48:38;33.27;;;18.40;;
8704;SDS011;4389;41.932;25.904;2023-02-11T07:51:06;27.83;;;17.37;;
8704;SDS011;4389;41.932;25.904;2023-02-11T07:53:35;28.73;;;19.17;;
8704;SDS011;4389;41.932;25.904;2023-02-11T07:56:02;39.50;;;23.10;;
8704;SDS011;4389;41.932;25.904;2023-02-11T07:58:30;37.90;;;23.13;;
8704;SDS011;4389;41.932;25.904;2023-02-11T08:01:01;36.13;;;17.63;;
8704;SDS011;4389;41.932;25.904;2023-02-11T08:03:29;26.43;;;16.97;;
8704;SDS011;4389;41.932;25.904;2023-02-11T08:05:57;31.53;;;18.57;;
8704;SDS011;4389;41.932;25.904;2023-02-11T08:08:24;28.73;;;17.80;;
8704;SDS011;4389;41.932;25.904;2023-02-11T08:10:51;36.20;;;18.60;;
8704;SDS011;4389;41.932;25.904;2023-02-11T08:13:18;36.03;;;18.33;;
8704;SDS011;4389;41.932;25.904;2023-02-11T08:15:45;26.37;;;17.73;;
8704;SDS011;4389;41.932;25.904;2023-02-11T08:18:12;29.17;;;18.17;;
8704;SDS011;4389;41.932;25.904;2023-02-11T08:20:39;32.60;;;19.33;;
8704;SDS011;4389;41.932;25.904;2023-02-11T08:23:07;28.97;;;18.93;;
8704;SDS011;4389;41.932;25.904;2023-02-11T08:25:34;33.07;;;20.27;;
8704;SDS011;4389;41.932;25.904;2023-02-11T08:28:00;28.20;;;19.70;;
8704;SDS011;4389;41.932;25.904;2023-02-11T08:30:27;39.37;;;20.53;;
8704;SDS011;4389;41.932;25.904;2023-02-11T08:32:54;31.43;;;20.13;;
8704;SDS011;4389;41.932;25.904;2023-02-11T08:35:21;34.90;;;20.30;;
8704;SDS011;4389;41.932;25.904;2023-02-11T08:37:50;30.47;;;19.00;;
8704;SDS011;4389;41.932;25.904;2023-02-11T08:40:18;36.63;;;20.23;;
8704;SDS011;4389;41.932;25.904;2023-02-11T08:42:46;31.30;;;20.07;;
8704;SDS011;4389;41.932;25.904;2023-02-11T08:45:13;32.73;;;19.67;;
8704;SDS011;4389;41.932;25.904;2023-02-11T08:47:39;33.53;;;19.33;;
8704;SDS011;4389;41.932;25.904;2023-02-11T08:50:06;42.30;;;22.93;;
8704;SDS011;4389;41.932;25.904;2023-02-11T08:52:34;36.13;;;20.37;;
8704;SDS011;4389;41.932;25.904;2023-02-11T08:55:01;40.53;;;22.37;;
8704;SDS011;4389;41.932;25.904;2023-02-11T08:57:30;37.83;;;22.57;;
8704;SDS011;4389;41.932;25.904;2023-02-11T08:59:57;35.10;;;21.53;;
8704;SDS011;4389;41.932;25.904;2023-02-11T09:02:24;33.70;;;21.10;;
8704;SDS011;4389;41.932;25.904;2023-02-11T09:04:51;31.60;;;20.53;;
8704;SDS011;4389;41.932;25.904;2023-02-11T09:07:18;32.87;;;21.63;;
8704;SDS011;4389;41.932;25.904;2023-02-11T09:09:45;29.10;;;18.43;;
8704;SDS011;4389;41.932;25.904;2023-02-11T09:12:11;32.73;;;18.10;;
8704;SDS011;4389;41.932;25.904;2023-02-11T09:14:40;30.00;;;17.43;;
8704;SDS011;4389;41.932;25.904;2023-02-11T09:17:07;32.30;;;15.90;;
8704;SDS011;4389;41.932;25.904;2023-02-11T09:19:34;23.93;;;14.97;;
8704;SDS011;4389;41.932;25.904;2023-02-11T09:22:00;32.87;;;14.10;;
8704;SDS011;4389;41.932;25.904;2023-02-11T09:24:27;26.90;;;17.47;;
8704;SDS011;4389;41.932;25.904;2023-02-11T09:26:54;23.60;;;15.20;;
8704;SDS011;4389;41.932;25.904;2023-02-11T09:29:21;29.63;;;17.97;;
8704;SDS011;4389;41.932;25.904;2023-02-11T09:31:50;36.83;;;18.80;;
8704;SDS011;4389;41.932;25.904;2023-02-11T09:34:16;28.07;;;17.47;;
8704;SDS011;4389;41.932;25.904;2023-02-11T09:36:43;139.23;;;25.00;;
8704;SDS011;4389;41.932;25.904;2023-02-11T09:39:11;34.93;;;18.27;;
8704;SDS011;4389;41.932;25.904;2023-02-11T09:41:46;27.17;;;14.67;;
8704;SDS011;4389;41.932;25.904;2023-02-11T09:44:25;42.10;;;16.43;;
8704;SDS011;4389;41.932;25.904;2023-02-11T09:46:56;24.23;;;13.53;;
8704;SDS011;4389;41.932;25.904;2023-02-11T09:49:29;19.87;;;13.10;;
8704;SDS011;4389;41.932;25.904;2023-02-11T09:52:01;26.53;;;13.13;;
8704;SDS011;4389;41.932;25.904;2023-02-11T09:54:33;21.97;;;15.07;;
8704;SDS011;4389;41.932;25.904;2023-02-11T09:57:03;30.23;;;15.40;;
8704;SDS011;4389;41.932;25.904;2023-02-11T09:59:31;34.60;;;15.20;;
8704;SDS011;4389;41.932;25.904;2023-02-11T10:02:00;21.07;;;14.30;;
8704;SDS011;4389;41.932;25.904;2023-02-11T10:04:36;23.07;;;15.60;;
8704;SDS011;4389;41.932;25.904;2023-02-11T10:07:16;29.43;;;14.27;;
8704;SDS011;4389;41.932;25.904;2023-02-11T10:09:56;22.43;;;14.67;;
8704;SDS011;4389;41.932;25.904;2023-02-11T10:12:37;25.10;;;14.67;;
8704;SDS011;4389;41.932;25.904;2023-02-11T10:15:16;24.57;;;14.37;;
8704;SDS011;4389;41.932;25.904;2023-02-11T10:20:52;24.33;;;14.23;;
8704;SDS011;4389;41.932;25.904;2023-02-11T10:23:30;19.50;;;11.93;;
8704;SDS011;4389;41.932;25.904;2023-02-11T10:26:02;20.60;;;12.50;;
8704;SDS011;4389;41.932;25.904;2023-02-11T10:28:36;22.50;;;10.47;;
8704;SDS011;4389;41.932;25.904;2023-02-11T10:31:04;13.40;;;9.53;;
8704;SDS011;4389;41.932;25.904;2023-02-11T10:33:40;13.13;;;8.90;;
8704;SDS011;4389;41.932;25.904;2023-02-11T10:36:12;17.73;;;9.63;;
8704;SDS011;4389;41.932;25.904;2023-02-11T10:38:41;16.93;;;9.43;;
8704;SDS011;4389;41.932;25.904;2023-02-11T10:41:09;22.67;;;9.83;;
8704;SDS011;4389;41.932;25.904;2023-02-11T10:43:38;17.00;;;8.87;;
8704;SDS011;4389;41.932;25.904;2023-02-11T10:46:09;15.93;;;10.57;;
8704;SDS011;4389;41.932;25.904;2023-02-11T10:48:44;14.90;;;8.07;;
8704;SDS011;4389;41.932;25.904;2023-02-11T10:51:17;17.23;;;9.37;;
8704;SDS011;4389;41.932;25.904;2023-02-11T10:53:46;23.93;;;10.73;;
8704;SDS011;4389;41.932;25.904;2023-02-11T10:56:19;16.07;;;8.70;;
8704;SDS011;4389;41.932;25.904;2023-02-11T10:58:56;19.60;;;10.10;;
8704;SDS011;4389;41.932;25.904;2023-02-11T11:01:38;13.23;;;8.50;;
8704;SDS011;4389;41.932;25.904;2023-02-11T11:04:21;18.70;;;10.13;;
8704;SDS011;4389;41.932;25.904;2023-02-11T11:07:08;27.13;;;10.90;;
8704;SDS011;4389;41.932;25.904;2023-02-11T11:09:42;15.67;;;9.67;;
8704;SDS011;4389;41.932;25.904;2023-02-11T11:12:20;16.60;;;10.33;;
8704;SDS011;4389;41.932;25.904;2023-02-11T11:14:52;19.43;;;9.37;;
8704;SDS011;4389;41.932;25.904;2023-02-11T11:17:20;16.00;;;8.73;;
8704;SDS011;4389;41.932;25.904;2023-02-11T11:19:50;10.50;;;7.37;;
8704;SDS011;4389;41.932;25.904;2023-02-11T11:22:20;15.03;;;8.00;;
8704;SDS011;4389;41.932;25.904;2023-02-11T11:24:47;10.93;;;7.87;;
8704;SDS011;4389;41.932;25.904;2023-02-11T11:27:19;20.00;;;8.57;;
8704;SDS011;4389;41.932;25.904;2023-02-11T11:29:49;10.03;;;7.50;;
8704;SDS011;4389;41.932;25.904;2023-02-11T11:32:18;12.40;;;7.70;;
8704;SDS011;4389;41.932;25.904;2023-02-11T11:34:48;9.73;;;6.57;;
8704;SDS011;4389;41.932;25.904;2023-02-11T11:37:19;16.37;;;9.03;;
8704;SDS011;4389;41.932;25.904;2023-02-11T11:39:51;15.43;;;7.43;;
8704;SDS011;4389;41.932;25.904;2023-02-11T11:42:26;12.03;;;6.73;;
8704;SDS011;4389;41.932;25.904;2023-02-11T11:44:58;29.43;;;11.83;;
8704;SDS011;4389;41.932;25.904;2023-02-11T11:47:35;11.30;;;7.30;;
8704;SDS011;4389;41.932;25.904;2023-02-11T11:50:21;16.80;;;7.70;;
8704;SDS011;4389;41.932;25.904;2023-02-11T11:52:53;15.77;;;8.60;;
8704;SDS011;4389;41.932;25.904;2023-02-11T11:55:26;9.03;;;6.10;;
8704;SDS011;4389;41.932;25.904;2023-02-11T11:57:58;9.70;;;6.57;;
8704;SDS011;4389;41.932;25.904;2023-02-11T12:00:27;11.70;;;7.87;;
8704;SDS011;4389;41.932;25.904;2023-02-11T12:06:19;11.20;;;6.80;;
8704;SDS011;4389;41.932;25.904;2023-02-11T12:08:54;11.10;;;5.83;;
8704;SDS011;4389;41.932;25.904;2023-02-11T12:11:30;11.77;;;6.00;;
8704;SDS011;4389;41.932;25.904;2023-02-11T12:14:12;12.00;;;7.10;;
8704;SDS011;4389;41.932;25.904;2023-02-11T12:16:51;10.67;;;6.40;;
8704;SDS011;4389;41.932;25.904;2023-02-11T12:19:34;10.60;;;6.80;;
8704;SDS011;4389;41.932;25.904;2023-02-11T12:22:24;14.10;;;7.47;;
8704;SDS011;4389;41.932;25.904;2023-02-11T12:25:01;10.87;;;7.23;;
8704;SDS011;4389;41.932;25.904;2023-02-11T12:27:39;8.50;;;6.23;;
8704;SDS011;4389;41.932;25.904;2023-02-11T12:30:18;10.23;;;6.50;;
8704;SDS011;4389;41.932;25.904;2023-02-11T12:33:07;8.83;;;6.10;;
8704;SDS011;4389;41.932;25.904;2023-02-11T12:35:51;8.40;;;5.37;;
8704;SDS011;4389;41.932;25.904;2023-02-11T12:38:33;10.50;;;6.43;;
8704;SDS011;4389;41.932;25.904;2023-02-11T12:41:16;7.83;;;5.73;;
8704;SDS011;4389;41.932;25.904;2023-02-11T12:44:22;10.80;;;5.60;;
8704;SDS011;4389;41.932;25.904;2023-02-11T12:47:00;9.97;;;6.17;;
8704;SDS011;4389;41.932;25.904;2023-02-11T12:49:43;8.20;;;5.90;;
8704;SDS011;4389;41.932;25.904;2023-02-11T12:52:26;10.00;;;6.67;;
8704;SDS011;4389;41.932;25.904;2023-02-11T12:55:08;12.93;;;7.70;;
8704;SDS011;4389;41.932;25.904;2023-02-11T12:57:42;12.27;;;5.93;;
8704;SDS011;4389;41.932;25.904;2023-02-11T13:00:13;12.10;;;6.40;;
8704;SDS011;4389;41.932;25.904;2023-02-11T13:02:44;15.03;;;5.27;;
8704;SDS011;4389;41.932;25.904;2023-02-11T13:05:23;9.43;;;5.90;;
8704;SDS011;4389;41.932;25.904;2023-02-11T13:07:53;7.37;;;5.73;;
8704;SDS011;4389;41.932;25.904;2023-02-11T13:10:26;8.40;;;5.37;;
8704;SDS011;4389;41.932;25.904;2023-02-11T13:12:57;8.53;;;6.00;;
8704;SDS011;4389;41.932;25.904;2023-02-11T13:15:44;8.73;;;5.73;;
8704;SDS011;4389;41.932;25.904;2023-02-11T13:18:18;9.77;;;4.93;;
8704;SDS011;4389;41.932;25.904;2023-02-11T13:20:57;7.67;;;5.13;;
8704;SDS011;4389;41.932;25.904;2023-02-11T13:23:34;8.50;;;5.63;;
8704;SDS011;4389;41.932;25.904;2023-02-11T13:26:09;10.77;;;5.50;;
8704;SDS011;4389;41.932;25.904;2023-02-11T13:28:44;10.93;;;5.13;;
8704;SDS011;4389;41.932;25.904;2023-02-11T13:31:15;9.40;;;5.33;;
8704;SDS011;4389;41.932;25.904;2023-02-11T13:33:44;9.17;;;5.73;;
8704;SDS011;4389;41.932;25.904;2023-02-11T13:36:15;13.67;;;6.43;;
8704;SDS011;4389;41.932;25.904;2023-02-11T13:38:50;11.57;;;5.80;;
8704;SDS011;4389;41.932;25.904;2023-02-11T13:41:23;14.47;;;6.40;;
8704;SDS011;4389;41.932;25.904;2023-02-11T13:44:04;15.43;;;6.53;;
8704;SDS011;4389;41.932;25.904;2023-02-11T13:46:47;10.17;;;6.37;;
8704;SDS011;4389;41.932;25.904;2023-02-11T13:49:22;9.37;;;6.10;;
8704;SDS011;4389;41.932;25.904;2023-02-11T13:51:50;7.00;;;5.00;;
8704;SDS011;4389;41.932;25.904;2023-02-11T13:54:21;29.23;;;6.60;;
8704;SDS011;4389;41.932;25.904;2023-02-11T14:00:05;41.00;;;6.50;;
8704;SDS011;4389;41.932;25.904;2023-02-11T14:03:19;9.50;;;5.57;;
8704;SDS011;4389;41.932;25.904;2023-02-11T14:06:14;8.57;;;5.80;;
8704;SDS011;4389;41.932;25.904;2023-02-11T14:09:07;12.70;;;6.40;;
8704;SDS011;4389;41.932;25.904;2023-02-11T14:14:57;22.37;;;8.00;;
8704;SDS011;4389;41.932;25.904;2023-02-11T14:17:42;14.63;;;8.13;;
8704;SDS011;4389;41.932;25.904;2023-02-11T14:20:31;13.67;;;6.20;;
8704;SDS011;4389;41.932;25.904;2023-02-11T14:23:00;14.27;;;6.60;;
8704;SDS011;4389;41.932;25.904;2023-02-11T14:25:29;8.67;;;6.13;;
8704;SDS011;4389;41.932;25.904;2023-02-11T14:27:58;19.43;;;6.97;;
8704;SDS011;4389;41.932;25.904;2023-02-11T14:30:43;12.07;;;6.93;;
8704;SDS011;4389;41.932;25.904;2023-02-11T14:33:24;10.10;;;6.07;;
8704;SDS011;4389;41.932;25.904;2023-02-11T14:36:07;7.87;;;5.93;;
8704;SDS011;4389;41.932;25.904;2023-02-11T14:38:51;21.97;;;7.53;;
8704;SDS011;4389;41.932;25.904;2023-02-11T14:41:26;18.60;;;8.33;;
8704;SDS011;4389;41.932;25.904;2023-02-11T14:43:57;9.50;;;6.23;;
8704;SDS011;4389;41.932;25.904;2023-02-11T14:46:27;11.60;;;6.50;;
8704;SDS011;4389;41.932;25.904;2023-02-11T14:48:57;8.13;;;5.70;;
8704;SDS011;4389;41.932;25.904;2023-02-11T14:51:26;13.10;;;6.80;;
8704;SDS011;4389;41.932;25.904;2023-02-11T14:53:57;20.07;;;8.60;;
8704;SDS011;4389;41.932;25.904;2023-02-11T14:56:29;24.17;;;9.07;;
8704;SDS011;4389;41.932;25.904;2023-02-11T14:58:59;12.63;;;7.10;;
8704;SDS011;4389;41.932;25.904;2023-02-11T15:01:28;23.53;;;6.97;;
8704;SDS011;4389;41.932;25.904;2023-02-11T15:03:58;29.97;;;8.33;;
8704;SDS011;4389;41.932;25.904;2023-02-11T15:06:25;24.90;;;8.03;;
8704;SDS011;4389;41.932;25.904;2023-02-11T15:08:55;134.00;;;18.33;;
8704;SDS011;4389;41.932;25.904;2023-02-11T15:11:26;26.27;;;7.60;;
8704;SDS011;4389;41.932;25.904;2023-02-11T15:13:55;50.93;;;11.97;;
8704;SDS011;4389;41.932;25.904;2023-02-11T15:16:27;32.53;;;10.70;;
8704;SDS011;4389;41.932;25.904;2023-02-11T15:18:55;45.83;;;10.57;;
8704;SDS011;4389;41.932;25.904;2023-02-11T15:21:24;33.37;;;11.63;;